createdAt,value
2019-03-08T00:01:49.307Z,5.00
2019-03-08T00:04:20.063Z,6.27
2019-03-08T00:06:50.808Z,7.83
2019-03-08T00:09:21.537Z,5.90
2019-03-08T00:11:52.220Z,3.77
2019-03-08T00:14:22.968Z,1.77
2019-03-08T00:16:53.677Z,2.43
2019-03-08T00:19:24.450Z,3.33
2019-03-08T00:21:55.157Z,6.93
2019-03-08T00:24:26.843Z,4.23
2019-03-08T00:26:57.562Z,4.47
2019-03-08T00:29:28.305Z,6.10
2019-03-08T00:31:59.000Z,2.00
2019-03-08T00:34:29.698Z,6.87
2019-03-08T00:37:00.403Z,3.83
2019-03-08T00:39:31.129Z,4.17
2019-03-08T00:42:01.866Z,6.13
2019-03-08T00:44:32.613Z,5.40
2019-03-08T00:47:03.322Z,2.50
2019-03-08T00:49:34.045Z,3.43
2019-03-08T00:52:04.711Z,4.40
2019-03-08T00:54:35.457Z,6.00
2019-03-08T00:57:06.174Z,6.07
2019-03-08T00:59:36.910Z,4.70
2019-03-08T01:02:07.645Z,2.43
2019-03-08T01:04:38.391Z,2.17
2019-03-08T01:07:09.113Z,2.43
2019-03-08T01:09:39.872Z,3.90
2019-03-08T01:12:10.550Z,4.87
2019-03-08T01:14:41.296Z,2.83
2019-03-08T01:17:11.943Z,4.57
2019-03-08T01:19:42.649Z,5.03
2019-03-08T01:22:13.376Z,3.53
2019-03-08T01:24:44.172Z,6.40
2019-03-08T01:27:14.878Z,3.33
2019-03-08T01:29:45.566Z,4.33
2019-03-08T01:32:16.301Z,3.27
2019-03-08T01:34:47.077Z,2.70
2019-03-08T01:37:17.834Z,3.80
2019-03-08T01:39:48.558Z,7.50
2019-03-08T01:42:19.326Z,2.30
2019-03-08T01:44:50.041Z,3.67
2019-03-08T01:47:20.759Z,2.40
2019-03-08T01:49:51.444Z,4.70
2019-03-08T01:52:22.180Z,1.47
2019-03-08T01:54:52.897Z,1.63
2019-03-08T01:57:23.664Z,8.10
2019-03-08T01:59:54.379Z,3.53
2019-03-08T02:02:25.106Z,2.93
2019-03-08T02:04:55.821Z,2.60
2019-03-08T02:07:26.578Z,5.43
2019-03-08T02:09:57.264Z,3.33
2019-03-08T02:12:28.000Z,8.23
2019-03-08T02:14:58.736Z,4.63
2019-03-08T02:17:29.443Z,5.17
2019-03-08T02:20:00.319Z,2.93
2019-03-08T02:22:31.205Z,4.07
2019-03-08T02:25:01.891Z,5.50
2019-03-08T02:27:32.628Z,2.73
2019-03-08T02:30:03.393Z,6.77
2019-03-08T02:32:34.131Z,6.97
2019-03-08T02:35:05.307Z,4.90
2019-03-08T02:37:36.092Z,5.73
2019-03-08T02:40:41.337Z,5.97
2019-03-08T02:43:17.229Z,6.73
2019-03-08T02:45:47.986Z,4.43
2019-03-08T02:48:18.677Z,2.57
2019-03-08T02:50:49.432Z,5.80
2019-03-08T02:53:20.374Z,3.37
2019-03-08T02:55:51.035Z,4.97
2019-03-08T02:58:21.841Z,4.17
2019-03-08T03:00:52.569Z,4.13
2019-03-08T03:03:23.305Z,3.93
2019-03-08T03:05:54.121Z,3.30
2019-03-08T03:08:24.837Z,5.20
2019-03-08T03:10:55.563Z,5.37
2019-03-08T03:13:26.311Z,7.20
2019-03-08T03:15:57.048Z,8.03
2019-03-08T03:18:27.771Z,6.53
2019-03-08T03:20:58.467Z,3.77
2019-03-08T03:23:29.223Z,7.40
2019-03-08T03:25:59.940Z,4.83
2019-03-08T03:28:30.686Z,4.40
2019-03-08T03:31:01.554Z,5.50
2019-03-08T03:33:32.283Z,3.60
2019-03-08T03:36:03.026Z,5.70
2019-03-08T03:38:33.812Z,4.53
2019-03-08T03:41:04.501Z,4.50
2019-03-08T03:43:35.444Z,9.20
2019-03-08T03:46:06.190Z,5.60
2019-03-08T03:48:36.938Z,4.80
2019-03-08T03:51:07.597Z,3.67
2019-03-08T03:53:38.339Z,3.53
2019-03-08T03:56:09.286Z,7.17
2019-03-08T03:58:40.051Z,4.63
2019-03-08T04:01:39.028Z,2.83
2019-03-08T04:04:09.752Z,5.03
2019-03-08T04:06:40.497Z,4.73
2019-03-08T04:09:12.862Z,9.33
2019-03-08T04:11:43.621Z,7.77
2019-03-08T04:14:14.347Z,7.07
2019-03-08T04:16:45.051Z,6.50
2019-03-08T04:19:15.788Z,6.13
2019-03-08T04:21:46.525Z,3.93
2019-03-08T04:24:17.294Z,7.90
2019-03-08T04:26:48.017Z,9.17
2019-03-08T04:29:18.752Z,3.97
2019-03-08T04:31:49.509Z,5.60
2019-03-08T04:34:20.235Z,5.37
2019-03-08T04:36:50.973Z,13.33
2019-03-08T04:39:21.737Z,7.63
2019-03-08T04:41:52.630Z,5.07
2019-03-08T04:44:23.399Z,10.70
2019-03-08T04:46:55.237Z,12.67
2019-03-08T04:49:26.042Z,5.93
2019-03-08T04:51:56.748Z,6.77
2019-03-08T04:54:27.575Z,7.77
2019-03-08T04:56:58.311Z,4.73
2019-03-08T04:59:29.019Z,8.13
2019-03-08T05:01:59.793Z,8.00
2019-03-08T05:04:30.520Z,8.03
2019-03-08T05:07:01.607Z,4.93
2019-03-08T05:09:32.292Z,10.10
2019-03-08T05:12:03.008Z,5.10
2019-03-08T05:14:33.724Z,3.23
2019-03-08T05:17:04.462Z,5.27
2019-03-08T05:19:35.478Z,9.87
2019-03-08T05:22:06.243Z,7.87
2019-03-08T05:24:36.929Z,5.37
2019-03-08T05:27:08.958Z,9.83
2019-03-08T05:29:39.642Z,7.63
2019-03-08T05:32:10.708Z,3.90
2019-03-08T05:34:41.354Z,6.43
2019-03-08T05:37:12.081Z,5.30
2019-03-08T05:39:42.817Z,6.40
2019-03-08T05:42:14.926Z,5.23
2019-03-08T05:44:45.820Z,8.57
2019-03-08T05:47:16.527Z,7.23
2019-03-08T05:49:47.192Z,7.50
2019-03-08T05:52:17.943Z,6.33
2019-03-08T05:54:48.644Z,7.50
2019-03-08T05:57:19.693Z,3.63
2019-03-08T05:59:50.461Z,7.70
2019-03-08T06:02:21.155Z,3.87
2019-03-08T06:04:51.909Z,14.50
2019-03-08T06:07:22.635Z,5.03
2019-03-08T06:09:53.332Z,5.93
2019-03-08T06:12:24.079Z,7.93
2019-03-08T06:14:54.774Z,6.73
2019-03-08T06:17:25.511Z,6.53
2019-03-08T06:19:56.217Z,5.47
2019-03-08T06:22:26.886Z,7.23
2019-03-08T06:24:57.601Z,7.10
2019-03-08T06:27:28.336Z,10.63
2019-03-08T06:29:59.015Z,7.97
2019-03-08T06:32:29.751Z,9.60
2019-03-08T06:35:00.543Z,17.07
2019-03-08T06:37:32.631Z,8.80
2019-03-08T06:40:03.358Z,9.20
2019-03-08T06:42:34.143Z,10.10
2019-03-08T06:45:05.221Z,7.53
2019-03-08T06:47:35.995Z,6.27
2019-03-08T06:50:07.574Z,9.80
2019-03-08T06:52:38.309Z,4.73
2019-03-08T06:55:09.638Z,6.73
2019-03-08T06:57:40.340Z,8.93
2019-03-08T07:00:31.773Z,5.73
2019-03-08T07:03:02.830Z,7.93
2019-03-08T07:05:33.545Z,4.97
2019-03-08T07:08:04.280Z,10.57
2019-03-08T07:10:34.999Z,5.60
2019-03-08T07:13:05.738Z,9.57
2019-03-08T07:15:36.461Z,6.00
2019-03-08T07:18:12.694Z,6.53
2019-03-08T07:20:47.886Z,12.50
2019-03-08T07:23:40.867Z,9.50
2019-03-08T07:26:42.862Z,5.50
2019-03-08T07:29:35.562Z,8.80
2019-03-08T07:32:37.687Z,6.07
2019-03-08T07:35:25.936Z,8.20
2019-03-08T07:38:07.795Z,6.80
2019-03-08T07:41:00.496Z,5.93
2019-03-08T07:43:49.412Z,5.43
2019-03-08T07:46:51.040Z,13.00
2019-03-08T07:49:33.507Z,7.07
2019-03-08T07:52:11.458Z,20.20
2019-03-08T07:55:01.142Z,6.83
2019-03-08T07:57:50.828Z,6.57
2019-03-08T08:00:32.396Z,5.73
2019-03-08T08:03:20.738Z,9.67
2019-03-08T08:05:58.431Z,6.87
2019-03-08T08:09:13.112Z,9.03
2019-03-08T08:12:01.485Z,8.33
2019-03-08T08:15:00.378Z,9.87
2019-03-08T08:17:40.935Z,7.97
2019-03-08T08:20:30.666Z,13.83
2019-03-08T08:23:15.917Z,6.80
2019-03-08T08:25:59.425Z,8.90
2019-03-08T08:28:50.182Z,8.53
2019-03-08T08:31:48.389Z,6.73
2019-03-08T08:34:27.027Z,7.93
2019-03-08T08:37:19.739Z,6.20
2019-03-08T08:40:01.490Z,8.90
2019-03-08T08:42:49.609Z,9.13
2019-03-08T08:45:27.736Z,7.67
2019-03-08T08:48:26.778Z,7.63
2019-03-08T08:51:13.330Z,5.30
2019-03-08T08:53:55.502Z,6.33
2019-03-08T08:56:44.178Z,3.97
2019-03-08T08:59:23.616Z,6.57
2019-03-08T09:02:16.307Z,8.93
2019-03-08T09:05:21.152Z,5.00
2019-03-08T09:08:01.454Z,6.93
2019-03-08T09:11:00.144Z,4.53
2019-03-08T09:13:40.201Z,4.70
2019-03-08T09:16:30.215Z,6.37
2019-03-08T09:19:17.005Z,7.17
2019-03-08T09:22:00.043Z,7.40
2019-03-08T09:24:49.701Z,6.20
2019-03-08T09:27:47.565Z,3.10
2019-03-08T09:30:28.255Z,6.67
2019-03-08T09:33:20.765Z,10.27
2019-03-08T09:36:00.072Z,11.77
2019-03-08T09:38:52.904Z,4.13
2019-03-08T09:41:31.934Z,9.50
2019-03-08T09:44:24.693Z,14.03
2019-03-08T09:47:18.485Z,21.53
2019-03-08T09:50:06.794Z,17.57
2019-03-08T09:52:55.206Z,16.37
2019-03-08T09:55:34.643Z,9.30
2019-03-08T09:58:23.894Z,4.67
2019-03-08T10:01:16.423Z,7.13
2019-03-08T10:03:54.453Z,16.47
2019-03-08T10:06:34.990Z,10.67
2019-03-08T10:09:32.619Z,9.13
2019-03-08T10:12:21.257Z,5.50
2019-03-08T10:15:26.127Z,5.97
2019-03-08T10:18:34.319Z,6.67
2019-03-08T10:21:26.995Z,6.60
2019-03-08T10:24:10.239Z,4.97
2019-03-08T10:27:21.020Z,3.10
2019-03-08T10:29:59.787Z,4.77
2019-03-08T10:32:54.440Z,5.83
2019-03-08T10:35:53.373Z,4.73
2019-03-08T10:38:38.591Z,4.00
2019-03-08T10:41:31.293Z,5.43
2019-03-08T10:44:11.646Z,4.50
2019-03-08T10:47:08.504Z,4.07
2019-03-08T10:49:55.812Z,4.03
2019-03-08T10:52:39.914Z,4.07
2019-03-08T10:55:39.599Z,2.87
2019-03-08T10:58:28.257Z,6.50
2019-03-08T11:01:20.928Z,3.93
2019-03-08T11:04:20.121Z,5.70
2019-03-08T11:07:12.823Z,2.13
2019-03-08T11:10:14.557Z,4.47
2019-03-08T11:13:07.287Z,6.87
2019-03-08T11:16:09.015Z,4.83
2019-03-08T11:18:57.331Z,5.23
2019-03-08T11:21:53.124Z,16.27
2019-03-08T11:25:08.130Z,7.30
2019-03-08T11:27:59.572Z,5.10
2019-03-08T11:30:53.884Z,3.00
2019-03-08T11:33:49.091Z,4.87
2019-03-08T11:36:38.777Z,4.20
2019-03-08T11:39:44.853Z,4.07
2019-03-08T11:42:40.553Z,3.20
2019-03-08T11:45:30.597Z,3.50
2019-03-08T11:48:20.216Z,1.93
2019-03-08T11:51:03.895Z,5.47
2019-03-08T11:53:45.594Z,4.73
2019-03-08T11:56:36.756Z,2.10
2019-03-08T11:59:21.124Z,2.43
2019-03-08T12:02:16.551Z,1.70
2019-03-08T12:05:04.887Z,3.50
2019-03-08T12:08:03.722Z,5.83
2019-03-08T12:10:53.412Z,2.77
2019-03-08T12:13:43.052Z,3.87
2019-03-08T12:16:20.770Z,7.30
2019-03-08T12:19:19.834Z,3.13
2019-03-08T12:21:59.301Z,3.13
2019-03-08T12:24:46.711Z,7.00
2019-03-08T12:27:29.913Z,9.90
2019-03-08T12:30:18.563Z,4.83
2019-03-08T12:32:58.531Z,6.70
2019-03-08T12:35:41.310Z,4.97
2019-03-08T12:38:36.353Z,4.13
2019-03-08T12:41:44.267Z,4.70
2019-03-08T12:44:23.165Z,3.70
2019-03-08T12:47:09.425Z,4.20
2019-03-08T12:49:59.095Z,4.43
2019-03-08T12:52:46.745Z,3.43
2019-03-08T12:55:28.074Z,7.23
2019-03-08T12:58:13.994Z,4.67
2019-03-08T13:01:02.635Z,5.10
2019-03-08T13:03:56.238Z,5.77
2019-03-08T13:06:39.506Z,4.87
2019-03-08T13:09:26.546Z,8.13
2019-03-08T13:11:57.335Z,4.67
2019-03-08T13:14:28.117Z,3.03
2019-03-08T13:16:58.826Z,5.40
2019-03-08T13:19:29.566Z,3.67
2019-03-08T13:22:00.318Z,5.73
2019-03-08T13:24:31.043Z,7.70
2019-03-08T13:27:01.830Z,4.43
2019-03-08T13:29:32.544Z,7.00
2019-03-08T13:32:03.382Z,7.70
2019-03-08T13:34:34.232Z,5.43
2019-03-08T13:37:04.974Z,25.80
2019-03-08T13:39:35.692Z,5.20
2019-03-08T13:42:07.376Z,4.40
2019-03-08T13:44:38.102Z,3.43
2019-03-08T13:47:09.100Z,9.47
2019-03-08T13:49:39.784Z,9.10
2019-03-08T13:52:10.568Z,4.70
2019-03-08T13:54:41.287Z,6.40
2019-03-08T13:57:12.063Z,4.10
2019-03-08T13:59:42.770Z,5.37
2019-03-08T14:02:13.526Z,4.50
2019-03-08T14:04:44.652Z,5.20
2019-03-08T14:07:15.518Z,4.60
2019-03-08T14:09:46.275Z,10.03
2019-03-08T14:12:16.971Z,7.00
2019-03-08T14:14:47.828Z,6.23
2019-03-08T14:17:18.523Z,4.57
2019-03-08T14:19:49.299Z,5.77
2019-03-08T14:22:19.995Z,5.20
2019-03-08T14:24:50.782Z,3.80
2019-03-08T14:27:21.518Z,5.40
2019-03-08T14:29:55.185Z,3.50
2019-03-08T14:32:26.911Z,4.23
2019-03-08T14:34:57.681Z,4.10
2019-03-08T14:37:28.413Z,5.07
2019-03-08T14:39:59.190Z,4.23
2019-03-08T14:42:37.007Z,4.70
2019-03-08T14:45:13.655Z,5.50
2019-03-08T14:47:47.033Z,5.50
2019-03-08T14:50:17.791Z,5.33
2019-03-08T14:52:48.503Z,3.33
2019-03-08T14:55:22.627Z,6.33
2019-03-08T14:57:55.050Z,7.17
2019-03-08T15:00:25.180Z,8.60
2019-03-08T15:02:56.750Z,4.97
2019-03-08T15:05:27.529Z,5.20
2019-03-08T15:07:58.281Z,3.00
2019-03-08T15:10:29.010Z,7.13
2019-03-08T15:12:59.765Z,13.27
2019-03-08T15:15:30.601Z,8.23
2019-03-08T15:18:01.314Z,7.63
2019-03-08T15:20:32.343Z,5.57
2019-03-08T15:23:03.061Z,14.90
2019-03-08T15:25:33.835Z,13.23
2019-03-08T15:28:04.692Z,7.17
2019-03-08T15:30:35.467Z,10.37
2019-03-08T15:33:06.305Z,9.53
2019-03-08T15:35:37.080Z,10.67
2019-03-08T15:38:08.037Z,3.97
2019-03-08T15:40:40.332Z,7.30
2019-03-08T15:43:13.573Z,9.30
2019-03-08T15:45:44.649Z,29.93
2019-03-08T15:48:16.025Z,40.43
2019-03-08T15:50:47.990Z,38.00
2019-03-08T15:53:18.924Z,46.97
2019-03-08T15:55:53.037Z,85.33
2019-03-08T15:58:22.007Z,59.13
2019-03-08T16:00:52.734Z,18.97
2019-03-08T16:03:23.499Z,16.77
2019-03-08T16:05:54.257Z,43.53
2019-03-08T16:08:25.031Z,26.10
2019-03-08T16:10:58.629Z,11.30
2019-03-08T16:13:29.375Z,11.73
2019-03-08T16:16:00.071Z,5.77
2019-03-08T16:18:30.840Z,5.63
2019-03-08T16:21:01.574Z,4.60
2019-03-08T16:23:32.299Z,6.17
2019-03-08T16:26:03.056Z,4.93
2019-03-08T16:28:33.821Z,5.80
2019-03-08T16:31:14.172Z,4.20
2019-03-08T16:33:48.448Z,7.70
2019-03-08T16:36:40.748Z,7.37
2019-03-08T16:39:17.647Z,6.90
2019-03-08T16:42:05.797Z,6.57
2019-03-08T16:45:10.361Z,5.43
2019-03-08T16:47:58.873Z,7.60
2019-03-08T16:50:56.120Z,7.87
2019-03-08T16:53:49.036Z,10.90
2019-03-08T16:56:25.835Z,8.50
2019-03-08T16:59:02.641Z,5.30
2019-03-08T17:01:58.216Z,4.93
2019-03-08T17:04:43.583Z,17.57
2019-03-08T17:07:48.347Z,7.93
2019-03-08T17:10:46.900Z,7.87
2019-03-08T17:13:28.228Z,11.60
2019-03-08T17:16:32.074Z,8.77
2019-03-08T17:19:27.364Z,8.13
2019-03-08T17:22:20.126Z,7.57
2019-03-08T17:25:11.357Z,8.10
2019-03-08T17:28:10.341Z,6.17
2019-03-08T17:31:07.371Z,4.90
2019-03-08T17:33:55.982Z,5.27
2019-03-08T17:36:45.807Z,5.53
2019-03-08T17:39:34.353Z,20.63
2019-03-08T17:42:30.186Z,13.67
2019-03-08T17:45:18.686Z,15.00
2019-03-08T17:48:12.288Z,12.70
2019-03-08T17:50:58.838Z,8.73
2019-03-08T17:54:00.754Z,6.47
2019-03-08T17:56:50.457Z,11.37
2019-03-08T17:59:40.163Z,12.60
2019-03-08T18:02:29.898Z,14.53
2019-03-08T18:05:31.567Z,9.97
2019-03-08T18:08:20.298Z,11.87
2019-03-08T18:11:13.070Z,6.33
2019-03-08T18:14:02.761Z,25.80
2019-03-08T18:16:50.550Z,18.73
2019-03-08T18:19:43.302Z,13.57
2019-03-08T18:22:38.944Z,10.13
2019-03-08T18:25:28.645Z,8.77
2019-03-08T18:28:08.343Z,6.83
2019-03-08T18:30:49.721Z,12.37
2019-03-08T18:33:38.157Z,7.57
2019-03-08T18:36:15.919Z,8.43
2019-03-08T18:39:05.350Z,8.77
2019-03-08T18:41:57.820Z,8.57
2019-03-08T18:44:39.030Z,10.50
2019-03-08T18:47:23.243Z,6.73
2019-03-08T18:50:19.011Z,17.27
2019-03-08T18:53:11.456Z,8.87
2019-03-08T18:56:07.207Z,12.73
2019-03-08T18:59:00.140Z,10.00
2019-03-08T19:01:52.618Z,13.10
2019-03-08T19:04:41.188Z,8.93
2019-03-08T19:07:46.413Z,8.77
2019-03-08T19:10:39.215Z,7.50
2019-03-08T19:13:34.946Z,7.57
2019-03-08T19:16:33.811Z,9.57
2019-03-08T19:19:29.643Z,10.77
2019-03-08T19:22:09.012Z,8.03
2019-03-08T19:24:58.833Z,9.43
2019-03-08T19:27:38.870Z,8.17
2019-03-08T19:30:47.443Z,17.70
2019-03-08T19:33:23.663Z,14.57
2019-03-08T19:36:13.392Z,14.57
2019-03-08T19:39:06.253Z,9.27
2019-03-08T19:41:54.734Z,12.13
2019-03-08T19:44:53.811Z,12.13
2019-03-08T19:47:46.328Z,14.77
2019-03-08T19:50:34.948Z,18.60
2019-03-08T19:53:42.925Z,12.50
2019-03-08T19:56:38.966Z,13.93
2019-03-08T19:59:19.864Z,17.23
2019-03-08T20:02:12.582Z,14.13
2019-03-08T20:05:05.038Z,15.63
2019-03-08T20:07:57.590Z,14.57
2019-03-08T20:10:54.113Z,15.63
2019-03-08T20:13:42.402Z,16.40
2019-03-08T20:16:31.352Z,8.43
2019-03-08T20:19:14.811Z,7.23
2019-03-08T20:22:04.723Z,10.70
2019-03-08T20:24:54.395Z,9.63
2019-03-08T20:27:44.304Z,16.23
2019-03-08T20:30:37.165Z,9.87
2019-03-08T20:33:39.481Z,10.63
2019-03-08T20:36:44.533Z,8.57
2019-03-08T20:39:30.761Z,12.63
2019-03-08T20:42:23.894Z,10.00
2019-03-08T20:45:05.385Z,9.60
2019-03-08T20:47:36.704Z,12.30
2019-03-08T20:50:09.482Z,9.63
2019-03-08T20:52:40.392Z,10.53
2019-03-08T20:55:11.129Z,12.57
2019-03-08T20:57:41.945Z,11.13
2019-03-08T21:00:13.211Z,14.23
2019-03-08T21:02:44.054Z,8.67
2019-03-08T21:05:14.763Z,6.77
2019-03-08T21:07:45.539Z,10.67
2019-03-08T21:10:16.591Z,5.50
2019-03-08T21:12:47.633Z,15.67
2019-03-08T21:15:25.119Z,10.93
2019-03-08T21:17:50.753Z,8.73
2019-03-08T21:20:21.461Z,9.60
2019-03-08T21:22:52.296Z,8.53
2019-03-08T21:25:23.014Z,6.93
2019-03-08T21:27:53.788Z,5.57
2019-03-08T21:30:24.534Z,7.80
2019-03-08T21:32:55.341Z,8.97
2019-03-08T21:35:26.086Z,8.47
2019-03-08T21:37:56.908Z,8.63
2019-03-08T21:40:27.619Z,9.20
2019-03-08T21:42:58.411Z,6.60
2019-03-08T21:45:29.131Z,8.03
2019-03-08T21:48:00.188Z,11.70
2019-03-08T21:50:30.944Z,8.73
2019-03-08T21:53:01.741Z,14.07
2019-03-08T21:55:32.666Z,14.60
2019-03-08T21:58:03.463Z,11.17
2019-03-08T22:00:34.179Z,10.93
2019-03-08T22:03:04.984Z,19.13
2019-03-08T22:05:37.691Z,13.03
2019-03-08T22:08:16.827Z,9.93
2019-03-08T22:10:54.745Z,9.17
2019-03-08T22:13:25.543Z,13.97
2019-03-08T22:15:56.289Z,17.40
2019-03-08T22:18:27.065Z,17.77
2019-03-08T22:20:57.796Z,11.97
2019-03-08T22:23:28.578Z,13.53
2019-03-08T22:25:59.335Z,21.03
2019-03-08T22:28:30.091Z,20.13
2019-03-08T22:31:01.807Z,21.23
2019-03-08T22:33:32.472Z,31.33
2019-03-08T22:36:03.229Z,23.20
2019-03-08T22:38:33.984Z,29.10
2019-03-08T22:41:04.740Z,25.13
2019-03-08T22:43:36.579Z,23.07
2019-03-08T22:46:07.333Z,6.50
2019-03-08T22:48:38.079Z,9.87
2019-03-08T22:51:09.797Z,8.00
2019-03-08T22:53:40.544Z,7.53
2019-03-08T22:56:11.278Z,5.73
2019-03-08T22:58:41.995Z,7.93
2019-03-08T23:01:15.014Z,7.87
2019-03-08T23:03:45.757Z,6.40
2019-03-08T23:06:16.704Z,6.23
2019-03-08T23:08:47.500Z,5.77
2019-03-08T23:11:18.307Z,8.63
2019-03-08T23:13:49.093Z,12.47
2019-03-08T23:16:19.888Z,4.90
2019-03-08T23:18:50.645Z,7.03
2019-03-08T23:21:21.474Z,8.00
2019-03-08T23:23:52.200Z,7.07
2019-03-08T23:26:22.924Z,10.70
2019-03-08T23:29:06.013Z,11.23
2019-03-08T23:31:55.735Z,9.30
2019-03-08T23:34:26.530Z,14.17
2019-03-08T23:36:57.297Z,6.43
2019-03-08T23:39:28.013Z,8.70
2019-03-08T23:41:58.769Z,6.63
2019-03-08T23:44:29.425Z,12.40
2019-03-08T23:47:00.514Z,10.57
2019-03-08T23:49:31.257Z,5.20
2019-03-08T23:52:02.027Z,11.87
2019-03-08T23:54:32.729Z,3.77
2019-03-08T23:57:03.498Z,8.13
2019-03-08T23:59:34.554Z,11.77
